createdAt,value
2023-04-11T00:01:46.905Z,1.67
2023-04-11T00:04:15.217Z,2.10
2023-04-11T00:06:43.860Z,2.10
2023-04-11T00:09:13.898Z,2.00
2023-04-11T00:11:42.005Z,1.63
2023-04-11T00:14:10.822Z,2.10
2023-04-11T00:16:39.652Z,2.00
2023-04-11T00:19:09.468Z,1.67
2023-04-11T00:21:40.120Z,1.70
2023-04-11T00:24:09.144Z,1.80
2023-04-11T00:26:38.725Z,2.03
2023-04-11T00:29:06.880Z,1.93
2023-04-11T00:31:35.623Z,2.43
2023-04-11T00:34:03.840Z,2.07
2023-04-11T00:36:32.731Z,2.07
2023-04-11T00:39:01.505Z,2.27
2023-04-11T00:41:29.712Z,1.80
2023-04-11T00:43:59.161Z,1.70
2023-04-11T00:46:28.038Z,2.07
2023-04-11T00:48:57.156Z,1.97
2023-04-11T00:51:25.765Z,2.37
2023-04-11T00:53:54.498Z,2.67
2023-04-11T00:56:23.190Z,2.50
2023-04-11T00:58:51.438Z,2.03
2023-04-11T01:01:25.117Z,2.23
2023-04-11T01:03:53.839Z,2.40
2023-04-11T01:06:24.268Z,1.83
2023-04-11T01:08:52.743Z,1.97
2023-04-11T01:11:21.276Z,1.67
2023-04-11T01:13:52.100Z,1.77
2023-04-11T01:16:21.946Z,1.67
2023-04-11T01:18:50.619Z,1.90
2023-04-11T01:21:20.575Z,2.07
2023-04-11T01:23:52.675Z,1.40
2023-04-11T01:26:21.091Z,1.77
2023-04-11T01:28:49.257Z,1.50
2023-04-11T01:31:17.568Z,1.73
2023-04-11T01:33:45.958Z,1.83
2023-04-11T01:36:14.407Z,1.90
2023-04-11T01:38:42.718Z,1.60
2023-04-11T01:41:13.149Z,1.70
2023-04-11T01:43:41.310Z,1.97
2023-04-11T01:46:11.214Z,1.60
2023-04-11T01:48:39.509Z,2.10
2023-04-11T01:51:08.407Z,1.83
2023-04-11T01:53:36.572Z,2.03
2023-04-11T01:56:05.027Z,1.43
2023-04-11T01:58:34.597Z,1.37
2023-04-11T02:01:02.830Z,1.50
2023-04-11T02:03:31.103Z,1.60
2023-04-11T02:05:59.413Z,1.90
2023-04-11T02:08:27.596Z,1.90
2023-04-11T02:10:56.934Z,1.70
2023-04-11T02:13:25.091Z,1.77
2023-04-11T02:15:54.601Z,1.60
2023-04-11T02:18:22.892Z,1.80
2023-04-11T02:20:51.292Z,1.53
2023-04-11T02:23:19.384Z,1.17
2023-04-11T02:25:48.091Z,1.30
2023-04-11T02:28:16.270Z,1.20
2023-04-11T02:30:44.444Z,1.60
2023-04-11T02:33:13.909Z,1.50
2023-04-11T02:35:43.415Z,1.33
2023-04-11T02:38:11.576Z,1.50
2023-04-11T02:40:39.710Z,1.40
2023-04-11T02:43:08.554Z,1.07
2023-04-11T02:45:36.932Z,1.33
2023-04-11T02:48:05.756Z,1.50
2023-04-11T02:50:40.958Z,1.97
2023-04-11T02:53:09.799Z,1.10
2023-04-11T02:55:42.451Z,1.30
2023-04-11T02:58:11.107Z,1.17
2023-04-11T03:00:39.361Z,1.20
2023-04-11T03:03:10.309Z,1.40
2023-04-11T03:05:43.861Z,1.30
2023-04-11T03:08:13.902Z,1.17
2023-04-11T03:10:49.092Z,1.53
2023-04-11T03:13:17.437Z,1.30
2023-04-11T03:15:45.749Z,1.53
2023-04-11T03:18:14.888Z,1.40
2023-04-11T03:20:46.969Z,1.30
2023-04-11T03:23:17.176Z,1.77
2023-04-11T03:25:45.665Z,1.50
2023-04-11T03:28:15.225Z,0.97
2023-04-11T03:30:44.092Z,1.40
2023-04-11T03:33:14.900Z,1.20
2023-04-11T03:35:43.091Z,1.93
2023-04-11T03:38:12.688Z,1.10
2023-04-11T03:40:40.941Z,1.20
2023-04-11T03:43:13.234Z,0.80
2023-04-11T03:45:41.941Z,0.80
2023-04-11T03:48:19.986Z,0.87
2023-04-11T03:50:56.680Z,1.00
2023-04-11T03:53:33.123Z,0.60
2023-04-11T03:56:08.617Z,0.70
2023-04-11T03:58:39.276Z,0.97
2023-04-11T04:01:07.986Z,0.90
2023-04-11T04:03:36.918Z,0.63
2023-04-11T04:06:06.258Z,0.80
2023-04-11T04:08:35.931Z,0.70
2023-04-11T04:11:04.535Z,0.90
2023-04-11T04:13:35.077Z,0.97
2023-04-11T04:16:13.926Z,1.23
2023-04-11T04:18:45.563Z,0.73
2023-04-11T04:21:13.882Z,1.00
2023-04-11T04:23:47.410Z,1.10
2023-04-11T04:26:31.378Z,0.93
2023-04-11T04:29:18.168Z,1.53
2023-04-11T04:31:52.977Z,0.70
2023-04-11T04:34:29.262Z,0.63
2023-04-11T04:37:02.042Z,1.00
2023-04-11T04:39:42.081Z,1.37
2023-04-11T04:42:12.842Z,1.53
2023-04-11T04:44:41.864Z,0.80
2023-04-11T04:47:19.323Z,1.17
2023-04-11T04:49:48.749Z,0.73
2023-04-11T04:52:18.038Z,1.00
2023-04-11T04:54:48.246Z,0.90
2023-04-11T04:57:16.419Z,0.90
2023-04-11T04:59:46.025Z,1.00
2023-04-11T05:02:17.280Z,0.90
2023-04-11T05:04:46.321Z,0.90
2023-04-11T05:07:16.090Z,0.87
2023-04-11T05:09:48.713Z,0.83
2023-04-11T05:12:27.087Z,1.10
2023-04-11T05:14:59.796Z,0.97
2023-04-11T05:17:31.202Z,1.23
2023-04-11T05:19:59.621Z,0.83
2023-04-11T05:22:29.082Z,0.80
2023-04-11T05:24:59.952Z,1.07
2023-04-11T05:27:28.166Z,1.13
2023-04-11T05:29:56.389Z,1.20
2023-04-11T05:32:25.271Z,0.90
2023-04-11T05:34:58.390Z,0.70
2023-04-11T05:37:37.309Z,1.10
2023-04-11T05:40:10.131Z,1.10
2023-04-11T05:42:38.347Z,1.10
2023-04-11T05:45:07.735Z,1.93
2023-04-11T05:47:35.840Z,0.93
2023-04-11T05:50:04.145Z,0.80
2023-04-11T05:52:32.269Z,1.00
2023-04-11T05:55:01.349Z,0.83
2023-04-11T05:57:30.992Z,0.93
2023-04-11T06:00:01.945Z,0.90
2023-04-11T06:02:41.101Z,1.00
2023-04-11T06:05:12.143Z,1.17
2023-04-11T06:07:41.405Z,1.33
2023-04-11T06:10:10.857Z,1.43
2023-04-11T06:12:40.274Z,2.33
2023-04-11T06:15:11.759Z,1.93
2023-04-11T06:17:39.915Z,1.27
2023-04-11T06:20:10.333Z,1.13
2023-04-11T06:22:40.105Z,1.57
2023-04-11T06:25:09.396Z,1.33
2023-04-11T06:27:37.535Z,1.10
2023-04-11T06:30:08.688Z,1.13
2023-04-11T06:32:36.838Z,0.97
2023-04-11T06:35:05.361Z,1.00
2023-04-11T06:37:33.611Z,1.30
2023-04-11T06:40:01.755Z,1.57
2023-04-11T06:42:30.014Z,1.63
2023-04-11T06:44:59.445Z,1.77
2023-04-11T06:47:28.930Z,1.40
2023-04-11T06:49:57.284Z,1.60
2023-04-11T06:52:27.556Z,1.30
2023-04-11T06:54:56.328Z,1.80
2023-04-11T06:57:24.517Z,2.63
2023-04-11T06:59:52.589Z,2.83
2023-04-11T07:02:21.987Z,1.90
2023-04-11T07:04:51.618Z,3.40
2023-04-11T07:07:19.684Z,2.73
2023-04-11T07:09:48.171Z,1.70
2023-04-11T07:12:16.381Z,2.27
2023-04-11T07:14:44.504Z,2.53
2023-04-11T07:17:12.629Z,1.97
2023-04-11T07:19:40.724Z,2.60
2023-04-11T07:22:10.170Z,2.80
2023-04-11T07:24:38.268Z,2.93
2023-04-11T07:27:06.780Z,2.30
2023-04-11T07:29:35.002Z,1.67
2023-04-11T07:32:03.150Z,1.37
2023-04-11T07:34:31.815Z,1.70
2023-04-11T07:37:01.097Z,1.53
2023-04-11T07:39:30.686Z,1.30
2023-04-11T07:41:59.131Z,1.90
2023-04-11T07:44:27.438Z,1.20
2023-04-11T07:46:55.771Z,1.20
2023-04-11T07:49:23.904Z,1.93
2023-04-11T07:51:51.989Z,1.40
2023-04-11T07:54:20.153Z,1.57
2023-04-11T07:56:49.650Z,1.37
2023-04-11T07:59:18.121Z,1.37
2023-04-11T08:01:46.267Z,1.17
2023-04-11T08:04:14.724Z,1.23
2023-04-11T08:06:43.515Z,1.30
2023-04-11T08:09:11.635Z,1.10
2023-04-11T08:11:40.860Z,1.30
2023-04-11T08:14:10.309Z,1.30
2023-04-11T08:16:38.453Z,1.70
2023-04-11T08:19:06.901Z,2.03
2023-04-11T08:21:35.017Z,1.23
2023-04-11T08:24:03.146Z,1.50
2023-04-11T08:26:31.410Z,1.57
2023-04-11T08:28:59.579Z,1.80
2023-04-11T08:31:29.460Z,1.40
2023-04-11T08:34:00.440Z,1.90
2023-04-11T08:36:29.255Z,1.50
2023-04-11T08:38:57.346Z,1.30
2023-04-11T08:41:25.474Z,1.27
2023-04-11T08:43:53.697Z,1.30
2023-04-11T08:46:21.896Z,1.70
2023-04-11T08:48:52.071Z,1.43
2023-04-11T08:51:23.472Z,1.80
2023-04-11T08:53:54.469Z,1.73
2023-04-11T08:56:22.721Z,2.20
2023-04-11T08:58:50.862Z,1.47
2023-04-11T09:01:31.817Z,1.93
2023-04-11T09:04:03.500Z,1.93
2023-04-11T09:06:32.832Z,1.33
2023-04-11T09:09:01.843Z,1.83
2023-04-11T09:11:29.900Z,1.57
2023-04-11T09:14:08.280Z,1.47
2023-04-11T09:16:36.892Z,1.33
2023-04-11T09:19:25.065Z,1.73
2023-04-11T09:21:53.914Z,1.40
2023-04-11T09:24:22.789Z,2.00
2023-04-11T09:26:51.373Z,1.77
2023-04-11T09:29:37.402Z,1.27
2023-04-11T09:32:05.985Z,1.70
2023-04-11T09:34:39.543Z,1.63
2023-04-11T09:37:09.221Z,1.43
2023-04-11T09:39:37.360Z,1.67
2023-04-11T09:42:25.196Z,1.43
2023-04-11T09:44:53.862Z,1.33
2023-04-11T09:47:22.452Z,1.47
2023-04-11T09:49:52.810Z,1.30
2023-04-11T09:52:21.758Z,1.93
2023-04-11T09:54:51.899Z,1.10
2023-04-11T09:57:22.779Z,1.57
2023-04-11T09:59:52.576Z,1.37
2023-04-11T10:02:20.910Z,1.60
2023-04-11T10:04:50.050Z,1.67
2023-04-11T10:07:20.449Z,1.53
2023-04-11T10:09:48.814Z,2.03
2023-04-11T10:12:31.605Z,1.50
2023-04-11T10:15:06.915Z,1.30
2023-04-11T10:17:35.072Z,1.83
2023-04-11T10:20:06.167Z,1.57
2023-04-11T10:23:05.957Z,1.80
2023-04-11T10:25:49.568Z,1.70
2023-04-11T10:28:35.448Z,1.60
2023-04-11T10:31:05.316Z,1.90
2023-04-11T10:33:36.076Z,2.10
2023-04-11T10:36:06.412Z,1.30
2023-04-11T10:38:49.793Z,1.23
2023-04-11T10:41:31.796Z,1.63
2023-04-11T10:44:15.677Z,1.53
2023-04-11T10:46:53.680Z,1.30
2023-04-11T10:49:36.832Z,2.27
2023-04-11T10:52:18.745Z,1.67
2023-04-11T10:54:48.500Z,1.23
2023-04-11T10:57:16.851Z,1.30
2023-04-11T11:00:01.238Z,1.73
2023-04-11T11:02:39.821Z,2.07
2023-04-11T11:05:20.481Z,1.37
2023-04-11T11:07:53.405Z,1.37
2023-04-11T11:10:43.179Z,1.80
2023-04-11T11:13:14.149Z,1.23
2023-04-11T11:15:48.736Z,2.03
2023-04-11T11:18:19.593Z,2.23
2023-04-11T11:20:47.721Z,1.23
2023-04-11T11:23:16.111Z,1.50
2023-04-11T11:25:55.363Z,2.00
2023-04-11T11:28:23.786Z,2.10
2023-04-11T11:30:54.840Z,1.50
2023-04-11T11:33:26.567Z,1.40
2023-04-11T11:35:57.531Z,1.27
2023-04-11T11:38:28.353Z,1.67
2023-04-11T11:40:58.882Z,1.80
2023-04-11T11:43:28.381Z,1.60
2023-04-11T11:46:11.338Z,1.80
2023-04-11T11:48:39.539Z,2.00
2023-04-11T11:51:08.137Z,1.80
2023-04-11T11:53:36.529Z,1.90
2023-04-11T11:56:15.857Z,1.27
2023-04-11T11:58:45.454Z,1.67
2023-04-11T12:01:17.092Z,1.60
2023-04-11T12:03:48.264Z,1.87
2023-04-11T12:06:17.287Z,1.30
2023-04-11T12:08:50.216Z,1.70
2023-04-11T12:11:19.885Z,1.70
2023-04-11T12:13:53.448Z,2.20
2023-04-11T12:16:23.739Z,2.30
2023-04-11T12:18:51.951Z,2.57
2023-04-11T12:21:20.105Z,2.20
2023-04-11T12:23:48.163Z,1.53
2023-04-11T12:26:17.657Z,1.30
2023-04-11T12:28:47.227Z,1.77
2023-04-11T12:31:15.814Z,1.70
2023-04-11T12:33:44.639Z,1.57
2023-04-11T12:36:13.663Z,1.40
2023-04-11T12:38:42.264Z,1.83
2023-04-11T12:41:30.897Z,2.30
2023-04-11T12:44:02.130Z,2.33
2023-04-11T12:46:30.367Z,2.03
2023-04-11T12:48:58.965Z,2.07
2023-04-11T12:51:27.581Z,1.33
2023-04-11T12:53:55.956Z,1.60
2023-04-11T12:56:24.070Z,2.93
2023-04-11T12:58:52.251Z,2.00
2023-04-11T13:01:23.503Z,1.37
2023-04-11T13:03:51.916Z,1.43
2023-04-11T13:06:20.239Z,1.63
2023-04-11T13:08:48.272Z,1.60
2023-04-11T13:11:16.388Z,1.37
2023-04-11T13:13:44.544Z,1.40
2023-04-11T13:16:12.908Z,1.50
2023-04-11T13:18:42.624Z,2.20
2023-04-11T13:21:10.857Z,1.70
2023-04-11T13:23:39.344Z,1.87
2023-04-11T13:26:08.148Z,1.70
2023-04-11T13:28:36.767Z,1.83
2023-04-11T13:31:04.936Z,2.00
2023-04-11T13:33:33.018Z,1.53
2023-04-11T13:36:02.966Z,1.60
2023-04-11T13:38:31.435Z,2.27
2023-04-11T13:40:59.945Z,1.60
2023-04-11T13:43:28.423Z,1.53
2023-04-11T13:45:56.717Z,1.47
2023-04-11T13:48:24.798Z,1.30
2023-04-11T13:50:52.947Z,1.80
2023-04-11T13:53:22.357Z,1.97
2023-04-11T13:55:51.202Z,1.10
2023-04-11T13:58:19.799Z,1.60
2023-04-11T14:00:49.690Z,1.67
2023-04-11T14:03:18.134Z,2.03
2023-04-11T14:05:46.282Z,1.53
2023-04-11T14:08:15.300Z,1.83
2023-04-11T14:10:45.029Z,1.73
2023-04-11T14:13:13.207Z,1.87
2023-04-11T14:15:41.345Z,1.30
2023-04-11T14:18:09.433Z,1.63
2023-04-11T14:20:37.910Z,1.27
2023-04-11T14:23:06.435Z,1.70
2023-04-11T14:25:34.636Z,2.10
2023-04-11T14:28:04.197Z,1.80
2023-04-11T14:30:32.534Z,1.23
2023-04-11T14:33:00.909Z,2.43
2023-04-11T14:35:29.123Z,1.50
2023-04-11T14:37:58.257Z,1.83
2023-04-11T14:40:26.395Z,0.97
2023-04-11T14:42:54.554Z,1.70
2023-04-11T14:45:24.086Z,1.87
2023-04-11T14:47:52.526Z,1.33
2023-04-11T14:50:20.775Z,1.70
2023-04-11T14:52:51.857Z,1.43
2023-04-11T14:55:20.403Z,1.73
2023-04-11T14:57:49.617Z,1.70
2023-04-11T15:00:22.581Z,1.70
2023-04-11T15:02:53.629Z,1.50
2023-04-11T15:05:23.416Z,1.40
2023-04-11T15:07:53.791Z,2.03
2023-04-11T15:10:23.865Z,2.90
2023-04-11T15:12:51.988Z,1.97
2023-04-11T15:15:20.208Z,1.80
2023-04-11T15:17:49.896Z,1.63
2023-04-11T15:20:20.032Z,1.40
2023-04-11T15:22:49.366Z,1.10
2023-04-11T15:25:17.658Z,1.50
2023-04-11T15:27:45.768Z,1.20
2023-04-11T15:30:14.186Z,1.63
2023-04-11T15:32:44.090Z,1.17
2023-04-11T15:35:12.376Z,1.60
2023-04-11T15:37:42.256Z,1.67
2023-04-11T15:40:12.279Z,1.40
2023-04-11T15:42:40.740Z,2.63
2023-04-11T15:45:09.783Z,1.67
2023-04-11T15:47:37.987Z,1.20
2023-04-11T15:50:07.412Z,1.23
2023-04-11T15:52:35.699Z,1.93
2023-04-11T15:55:05.783Z,1.80
2023-04-11T15:57:33.832Z,1.33
2023-04-11T16:00:02.234Z,1.60
2023-04-11T16:02:38.232Z,1.53
2023-04-11T16:05:07.908Z,1.23
2023-04-11T16:07:36.170Z,1.77
2023-04-11T16:10:06.487Z,1.50
2023-04-11T16:12:34.589Z,1.63
2023-04-11T16:15:02.679Z,1.20
2023-04-11T16:17:30.940Z,1.30
2023-04-11T16:19:59.202Z,1.10
2023-04-11T16:22:27.355Z,1.30
2023-04-11T16:24:56.333Z,1.40
2023-04-11T16:27:25.969Z,1.17
2023-04-11T16:29:59.744Z,1.20
2023-04-11T16:32:28.018Z,1.80
2023-04-11T16:34:57.725Z,1.50
2023-04-11T16:37:26.029Z,1.13
2023-04-11T16:39:54.507Z,1.30
2023-04-11T16:42:23.753Z,1.30
2023-04-11T16:44:53.397Z,1.40
2023-04-11T16:47:26.182Z,0.97
2023-04-11T16:49:55.048Z,1.00
2023-04-11T16:52:23.622Z,1.67
2023-04-11T16:54:52.145Z,1.00
2023-04-11T16:57:20.342Z,1.50
2023-04-11T16:59:48.457Z,1.30
2023-04-11T17:02:18.234Z,1.43
2023-04-11T17:04:46.581Z,1.50
2023-04-11T17:07:14.706Z,1.93
2023-04-11T17:09:42.748Z,1.70
2023-04-11T17:12:10.833Z,1.10
2023-04-11T17:14:38.912Z,1.00
2023-04-11T17:17:07.026Z,1.53
2023-04-11T17:19:36.671Z,1.57
2023-04-11T17:22:05.883Z,1.47
2023-04-11T17:24:34.136Z,1.30
2023-04-11T17:27:02.501Z,1.83
2023-04-11T17:29:30.565Z,1.80
2023-04-11T17:31:58.655Z,1.43
2023-04-11T17:34:26.726Z,1.57
2023-04-11T17:36:58.685Z,1.30
2023-04-11T17:39:26.806Z,1.47
2023-04-11T17:41:55.352Z,1.47
2023-04-11T17:44:23.475Z,2.13
2023-04-11T17:46:51.740Z,1.30
2023-04-11T17:49:21.561Z,1.50
2023-04-11T17:51:58.754Z,2.03
2023-04-11T17:54:28.834Z,1.47
2023-04-11T17:56:57.341Z,1.33
2023-04-11T17:59:25.538Z,1.73
2023-04-11T18:01:55.988Z,1.50
2023-04-11T18:04:24.495Z,1.37
2023-04-11T18:06:52.772Z,1.70
2023-04-11T18:09:20.865Z,1.90
2023-04-11T18:11:50.551Z,1.47
2023-04-11T18:14:18.836Z,1.50
2023-04-11T18:16:47.967Z,1.97
2023-04-11T18:19:16.123Z,1.20
2023-04-11T18:21:44.238Z,1.70
2023-04-11T18:24:12.341Z,1.57
2023-04-11T18:26:40.458Z,1.83
2023-04-11T18:29:09.877Z,2.00
2023-04-11T18:31:38.029Z,1.70
2023-04-11T18:34:07.248Z,2.00
2023-04-11T18:36:36.421Z,2.00
2023-04-11T18:39:05.255Z,2.30
2023-04-11T18:41:33.364Z,4.83
2023-04-11T18:44:02.739Z,8.30
2023-04-11T18:46:34.248Z,5.70
2023-04-11T18:49:05.169Z,5.30
2023-04-11T18:51:35.513Z,5.23
2023-04-11T18:54:03.767Z,4.50
2023-04-11T18:56:32.008Z,4.40
2023-04-11T18:59:05.355Z,4.13
2023-04-11T19:01:37.425Z,5.60
2023-04-11T19:04:06.124Z,5.97
2023-04-11T19:06:34.583Z,5.93
2023-04-11T19:09:02.725Z,5.00
2023-04-11T19:11:31.123Z,5.70
2023-04-11T19:14:00.039Z,5.10
2023-04-11T19:16:28.422Z,4.30
2023-04-11T19:18:58.990Z,3.90
2023-04-11T19:21:27.203Z,4.13
2023-04-11T19:23:56.754Z,4.47
2023-04-11T19:26:27.443Z,3.23
2023-04-11T19:28:55.638Z,3.80
2023-04-11T19:31:26.738Z,4.90
2023-04-11T19:33:55.137Z,4.83
2023-04-11T19:36:25.604Z,5.50
2023-04-11T19:38:53.687Z,4.93
2023-04-11T19:41:21.831Z,4.90
2023-04-11T19:43:49.935Z,5.07
2023-04-11T19:46:18.457Z,5.40
2023-04-11T19:48:46.990Z,4.63
2023-04-11T19:51:15.187Z,4.40
2023-04-11T19:53:44.658Z,4.07
2023-04-11T19:56:14.472Z,3.47
2023-04-11T19:58:42.968Z,3.70
2023-04-11T20:01:11.092Z,4.67
2023-04-11T20:03:40.824Z,5.97
2023-04-11T20:06:09.467Z,5.93
2023-04-11T20:08:38.188Z,4.03
2023-04-11T20:11:07.904Z,3.20
2023-04-11T20:13:36.087Z,3.13
2023-04-11T20:16:08.252Z,3.00
2023-04-11T20:18:36.776Z,3.37
2023-04-11T20:21:07.569Z,4.20
2023-04-11T20:23:37.085Z,3.80
2023-04-11T20:26:05.507Z,3.50
2023-04-11T20:28:35.039Z,4.47
2023-04-11T20:31:04.600Z,3.67
2023-04-11T20:33:32.855Z,3.63
2023-04-11T20:36:03.321Z,3.00
2023-04-11T20:38:31.666Z,3.50
2023-04-11T20:41:03.969Z,3.30
2023-04-11T20:43:32.387Z,2.67
2023-04-11T20:46:01.936Z,2.90
2023-04-11T20:48:32.015Z,2.50
2023-04-11T20:51:01.735Z,2.70
2023-04-11T20:53:30.016Z,2.60
2023-04-11T20:55:58.164Z,3.40
2023-04-11T20:58:27.656Z,4.80
2023-04-11T21:00:55.806Z,4.30
2023-04-11T21:03:25.670Z,4.30
2023-04-11T21:05:53.902Z,2.90
2023-04-11T21:08:23.584Z,3.83
2023-04-11T21:10:51.811Z,2.37
2023-04-11T21:13:20.018Z,1.83
2023-04-11T21:15:48.175Z,1.77
2023-04-11T21:18:16.365Z,1.53
2023-04-11T21:20:46.220Z,1.70
2023-04-11T21:23:14.571Z,1.70
2023-04-11T21:25:42.698Z,1.40
2023-04-11T21:28:10.859Z,1.63
2023-04-11T21:30:39.520Z,2.00
2023-04-11T21:33:07.915Z,1.77
2023-04-11T21:35:36.240Z,1.70
2023-04-11T21:38:05.773Z,1.83
2023-04-11T21:40:33.859Z,1.93
2023-04-11T21:43:01.998Z,2.40
2023-04-11T21:45:30.159Z,2.40
2023-04-11T21:47:58.409Z,1.90
2023-04-11T21:50:26.514Z,1.97
2023-04-11T21:52:54.831Z,1.50
2023-04-11T21:55:24.372Z,1.80
2023-04-11T21:57:52.491Z,1.77
2023-04-11T22:00:20.739Z,2.27
2023-04-11T22:02:49.077Z,1.90
2023-04-11T22:05:18.788Z,1.70
2023-04-11T22:07:49.629Z,1.90
2023-04-11T22:10:23.741Z,1.67
2023-04-11T22:12:54.575Z,1.50
2023-04-11T22:15:23.943Z,1.50
2023-04-11T22:17:56.415Z,1.93
2023-04-11T22:20:24.848Z,1.73
2023-04-11T22:22:52.899Z,2.10
2023-04-11T22:25:22.715Z,1.80
2023-04-11T22:27:54.169Z,1.30
2023-04-11T22:30:24.876Z,1.33
2023-04-11T22:32:54.412Z,1.73
2023-04-11T22:35:23.510Z,2.30
2023-04-11T22:37:53.680Z,1.83
2023-04-11T22:40:23.044Z,1.57
2023-04-11T22:42:52.244Z,1.70
2023-04-11T22:45:21.333Z,1.40
2023-04-11T22:47:54.284Z,1.80
2023-04-11T22:50:22.824Z,1.53
2023-04-11T22:52:51.063Z,1.63
2023-04-11T22:55:21.139Z,1.67
2023-04-11T22:57:49.518Z,1.77
2023-04-11T23:00:18.888Z,1.30
2023-04-11T23:02:47.267Z,1.80
2023-04-11T23:05:17.713Z,1.97
2023-04-11T23:07:46.361Z,1.50
2023-04-11T23:10:15.527Z,1.30
2023-04-11T23:12:44.647Z,1.40
2023-04-11T23:15:13.251Z,1.70
2023-04-11T23:17:41.444Z,1.50
2023-04-11T23:20:12.821Z,1.60
2023-04-11T23:22:43.739Z,1.77
2023-04-11T23:25:13.414Z,1.57
2023-04-11T23:27:41.788Z,2.30
2023-04-11T23:30:11.837Z,1.70
2023-04-11T23:32:40.895Z,1.90
2023-04-11T23:35:10.566Z,2.03
2023-04-11T23:37:38.725Z,1.73
2023-04-11T23:40:12.341Z,1.87
2023-04-11T23:42:40.452Z,1.87
2023-04-11T23:45:10.626Z,1.50
2023-04-11T23:47:39.276Z,1.90
2023-04-11T23:50:08.203Z,1.80
2023-04-11T23:52:36.339Z,2.10
2023-04-11T23:55:05.202Z,2.17
2023-04-11T23:57:34.820Z,2.00
